Time;durP1;ratioP1;P1;durP2;ratioP2;P2;SDS_P1;SDS_P2;PMS_P1;PMS_P2;Temp;Humidity;BMP_temperature;BMP_pressure;BME280_temperature;BME280_humidity;BME280_pressure;Samples;Min_cycle;Max_cycle;Signal;HPM_P1;HPM_P2
2022/04/22 00:02:33;;;;;;;5.97;5.57;;;12.40;86.80;;;;;;10456540;28;20267;-80
2022/04/22 00:07:35;;;;;;;6.20;5.70;;;12.30;87.70;;;;;;10462743;28;20622;-82
2022/04/22 00:12:38;;;;;;;6.63;5.97;;;12.30;86.50;;;;;;10463299;28;20276;-82
2022/04/22 00:17:42;;;;;;;7.13;6.60;;;12.30;86.80;;;;;;10444685;28;20546;-81
2022/04/22 00:22:44;;;;;;;6.43;6.00;;;12.30;86.80;;;;;;10460780;28;20648;-82
2022/04/22 00:27:48;;;;;;;6.70;6.20;;;12.30;87.80;;;;;;10455862;28;20243;-81
2022/04/22 00:32:50;;;;;;;6.93;6.43;;;12.20;87.70;;;;;;10455452;28;20575;-82
2022/04/22 00:37:52;;;;;;;6.63;6.03;;;12.20;87.90;;;;;;10463341;28;20244;-82
2022/04/22 00:42:56;;;;;;;6.50;6.00;;;12.20;88.40;;;;;;10461576;28;20543;-82
2022/04/22 00:47:58;;;;;;;6.97;6.40;;;12.10;87.60;;;;;;10441214;28;20201;-81
2022/04/22 00:53:00;;;;;;;6.70;6.07;;;12.00;88.10;;;;;;10442667;28;20254;-81
2022/04/22 00:58:04;;;;;;;7.57;6.90;;;11.90;87.70;;;;;;10437620;28;20227;-79
2022/04/22 01:03:07;;;;;;;7.80;7.20;;;11.90;87.50;;;;;;10449244;28;20212;-79
2022/04/22 01:13:31;;;;;;;8.10;7.50;;;11.70;89.30;;;;;;10452677;28;20216;-78
2022/04/22 01:18:33;;;;;;;7.73;7.07;;;11.60;89.50;;;;;;10469206;28;20209;-79
2022/04/22 01:23:36;;;;;;;7.43;6.83;;;11.50;88.90;;;;;;10453595;28;20213;-79
2022/04/22 01:28:39;;;;;;;8.27;7.57;;;11.40;89.20;;;;;;10452036;28;20214;-79
2022/04/22 01:33:41;;;;;;;9.30;8.50;;;11.40;90.00;;;;;;10453461;28;20229;-79
2022/04/22 01:38:45;;;;;;;8.30;7.60;;;11.30;89.80;;;;;;10453272;28;20209;-79
2022/04/22 01:43:47;;;;;;;7.93;7.27;;;11.30;89.50;;;;;;10452236;28;20186;-79
2022/04/22 01:48:49;;;;;;;8.67;7.87;;;11.20;89.80;;;;;;10453339;28;20271;-79
2022/04/22 01:53:53;;;;;;;7.90;7.20;;;11.10;90.40;;;;;;10452002;28;20213;-78
2022/04/22 01:58:55;;;;;;;8.20;7.50;;;11.10;90.50;;;;;;10453354;28;20221;-79
2022/04/22 02:03:58;;;;;;;8.67;7.97;;;11.10;89.90;;;;;;10451724;28;20193;-79
2022/04/22 02:09:01;;;;;;;9.53;8.63;;;11.00;90.20;;;;;;10457721;28;20209;-79
2022/04/22 02:14:03;;;;;;;9.90;8.90;;;10.90;90.20;;;;;;10442406;28;20275;-79
2022/04/22 02:19:05;;;;;;;9.37;8.57;;;10.90;90.60;;;;;;10464571;28;20240;-81
2022/04/22 02:24:09;;;;;;;8.73;8.07;;;10.80;90.60;;;;;;10466089;28;20190;-81
2022/04/22 02:29:11;;;;;;;9.23;8.43;;;10.70;90.50;;;;;;10463039;28;20213;-80
2022/04/22 02:34:13;;;;;;;10.17;9.27;;;10.60;90.60;;;;;;10464923;28;20205;-81
2022/04/22 02:39:17;;;;;;;10.30;9.40;;;10.60;90.40;;;;;;10463275;28;20220;-82
2022/04/22 02:49:43;;;;;;;9.70;8.90;;;10.30;91.00;;;;;;10465032;28;20315;-81
2022/04/22 02:54:46;;;;;;;11.80;10.70;;;10.20;91.10;;;;;;10464138;28;20296;-80
2022/04/22 02:59:49;;;;;;;11.13;10.03;;;10.10;90.80;;;;;;10463836;28;20262;-80
2022/04/22 03:04:51;;;;;;;11.00;10.10;;;10.10;91.30;;;;;;10447968;28;20630;-80
2022/04/22 03:09:54;;;;;;;11.50;10.50;;;10.00;91.30;;;;;;10462994;28;20219;-79
2022/04/22 03:14:57;;;;;;;11.27;10.27;;;9.90;91.90;;;;;;10458329;28;20279;-79
2022/04/22 03:19:59;;;;;;;10.77;9.77;;;9.80;92.00;;;;;;10459223;28;20229;-79
2022/04/22 03:25:03;;;;;;;12.53;11.23;;;9.80;91.40;;;;;;10463887;28;20229;-79
2022/04/22 03:30:06;;;;;;;11.37;10.27;;;9.70;92.00;;;;;;10460746;28;20221;-79
2022/04/22 03:35:09;;;;;;;11.70;10.60;;;9.70;92.10;;;;;;10461177;28;20248;-79
2022/04/22 03:40:12;;;;;;;12.67;11.43;;;9.60;92.00;;;;;;10466385;28;20221;-79
2022/04/22 03:45:14;;;;;;;12.37;11.20;;;9.50;92.60;;;;;;10473804;28;20197;-79
2022/04/22 03:50:17;;;;;;;12.73;11.50;;;9.50;92.40;;;;;;10472580;28;20247;-80
2022/04/22 03:55:20;;;;;;;13.77;12.47;;;9.50;93.00;;;;;;10454871;28;20221;-80
2022/04/22 04:00:22;;;;;;;13.60;12.30;;;9.50;92.60;;;;;;10446793;28;20217;-80
2022/04/22 04:05:24;;;;;;;14.07;12.77;;;9.50;92.40;;;;;;10415957;28;20197;-81
2022/04/22 04:16:00;;;;;;;14.67;13.17;;;9.30;93.30;;;;;;10422127;28;20217;-81
2022/04/22 04:26:26;;;;;;;15.00;13.50;;;9.30;93.10;;;;;;10460183;28;20193;-81
2022/04/22 04:31:29;;;;;;;17.60;15.90;;;9.30;93.50;;;;;;10456970;28;20216;-81
2022/04/22 04:36:31;;;;;;;16.60;14.93;;;9.20;93.60;;;;;;10460748;28;20215;-81
2022/04/22 04:41:35;;;;;;;18.13;16.43;;;9.30;93.20;;;;;;10460002;28;20278;-81
2022/04/22 04:46:37;;;;;;;16.93;15.20;;;9.20;92.80;;;;;;10452633;28;20568;-81
2022/04/22 04:51:39;;;;;;;19.40;17.37;;;9.20;93.20;;;;;;10442115;28;20701;-82
2022/04/22 04:56:43;;;;;;;17.87;16.17;;;9.20;93.70;;;;;;10460988;28;20219;-82
2022/04/22 05:01:45;;;;;;;19.00;17.10;;;9.20;93.70;;;;;;10453815;28;20225;-82
2022/04/22 05:06:47;;;;;;;18.27;16.37;;;9.20;94.00;;;;;;10459677;28;20223;-83
2022/04/22 05:11:51;;;;;;;20.23;18.00;;;9.30;94.10;;;;;;10459876;28;20231;-83
2022/04/22 05:16:54;;;;;;;19.37;17.43;;;9.30;93.80;;;;;;10442396;28;20233;-83
2022/04/22 05:21:56;;;;;;;19.50;17.73;;;9.30;93.80;;;;;;10480490;23;20228;-86
2022/04/22 05:27:00;;;;;;;20.13;16.67;;;9.40;94.20;;;;;;10480327;28;20246;-85
2022/04/22 05:37:21;;;;;;;20.33;18.00;;;9.50;94.50;;;;;;10425241;28;20208;-85
2022/04/22 05:42:25;;;;;;;22.53;20.23;;;9.60;94.50;;;;;;10456231;28;20217;-85
2022/04/22 05:47:27;;;;;;;30.43;22.13;;;9.70;94.60;;;;;;10449908;28;20201;-84
2022/04/22 05:52:29;;;;;;;22.03;19.77;;;9.80;95.10;;;;;;10438151;28;20217;-85
2022/04/22 05:57:34;;;;;;;24.60;22.00;;;10.00;94.60;;;;;;10467603;28;20217;-84
2022/04/22 06:02:36;;;;;;;23.33;20.93;;;10.10;94.60;;;;;;10470497;28;20217;-83
2022/04/22 06:07:39;;;;;;;25.43;22.83;;;10.30;94.50;;;;;;10434377;28;20197;-85
2022/04/22 06:12:42;;;;;;;25.63;23.00;;;10.50;94.10;;;;;;10435814;28;20225;-86
2022/04/22 06:17:45;;;;;;;23.53;21.10;;;10.60;93.90;;;;;;10445258;28;20283;-85
2022/04/22 06:22:47;;;;;;;24.50;22.10;;;10.80;92.90;;;;;;10428013;28;20651;-83
2022/04/22 06:27:50;;;;;;;24.43;21.80;;;10.90;93.40;;;;;;10427665;28;20228;-86
2022/04/22 06:32:54;;;;;;;24.30;21.70;;;11.00;92.70;;;;;;10421605;28;20218;-86
2022/04/22 06:37:57;;;;;;;25.03;22.63;;;11.10;93.30;;;;;;10426773;28;20601;-86
2022/04/22 06:48:25;;;;;;;24.97;22.57;;;11.30;92.70;;;;;;10404385;28;20559;-84
2022/04/22 06:53:28;;;;;;;24.77;22.10;;;11.40;93.00;;;;;;10427116;28;20219;-87
2022/04/22 06:58:37;;;;;;;24.07;21.50;;;11.50;92.20;;;;;;10426580;28;20559;-88
2022/04/22 07:03:39;;;;;;;23.90;21.23;;;11.60;93.00;;;;;;10427311;28;20574;-88
2022/04/22 07:08:45;;;;;;;25.63;21.77;;;11.70;92.10;;;;;;10443600;28;20200;-85
2022/04/22 07:13:50;;;;;;;23.97;21.47;;;11.70;91.80;;;;;;10463025;28;20300;-83
2022/04/22 07:18:53;;;;;;;26.00;22.77;;;11.80;92.70;;;;;;10426530;28;20197;-86
2022/04/22 07:23:57;;;;;;;25.43;22.73;;;11.90;92.80;;;;;;10442570;28;20196;-83
2022/04/22 07:29:03;;;;;;;24.30;21.90;;;12.10;91.80;;;;;;10450214;28;20260;-86
2022/04/22 07:34:08;;;;;;;25.63;22.90;;;12.20;91.20;;;;;;10446277;28;20307;-82
2022/04/22 07:39:11;;;;;;;25.37;22.77;;;12.40;90.90;;;;;;10440865;28;20243;-83
2022/04/22 07:49:35;;;;;;;24.13;21.27;;;12.70;90.20;;;;;;10445118;28;20213;-85
2022/04/22 07:54:37;;;;;;;21.70;19.57;;;12.90;90.20;;;;;;10435976;28;20232;-83
2022/04/22 07:59:41;;;;;;;21.43;19.23;;;13.10;91.20;;;;;;10480725;28;20213;-83
2022/04/22 08:04:43;;;;;;;23.03;20.70;;;13.40;91.20;;;;;;10440489;28;20193;-83
2022/04/22 08:09:47;;;;;;;21.83;19.63;;;13.60;90.70;;;;;;10460002;28;20225;-82
2022/04/22 08:14:50;;;;;;;23.57;21.27;;;13.80;89.10;;;;;;10423217;28;20217;-83
2022/04/22 08:19:52;;;;;;;23.17;20.83;;;14.00;89.40;;;;;;10440918;28;20271;-83
2022/04/22 08:24:55;;;;;;;22.30;20.10;;;14.20;86.60;;;;;;10431888;28;20206;-83
2022/04/22 08:29:59;;;;;;;21.10;19.10;;;14.40;88.20;;;;;;10466487;28;20265;-83
2022/04/22 08:35:01;;;;;;;21.37;19.33;;;14.60;87.80;;;;;;10432473;28;20213;-82
2022/04/22 08:40:05;;;;;;;23.10;20.73;;;14.90;85.10;;;;;;10445887;28;20217;-82
2022/04/22 08:45:09;;;;;;;20.20;18.10;;;15.10;84.40;;;;;;10458741;28;20181;-83
2022/04/22 08:50:16;;;;;;;20.37;18.03;;;15.30;85.00;;;;;;10440844;28;20209;-83
2022/04/22 08:55:20;;;;;;;18.93;16.97;;;15.60;84.10;;;;;;10436634;28;20245;-82
2022/04/22 09:00:27;;;;;;;20.20;18.30;;;15.90;84.40;;;;;;10426818;28;20636;-83
2022/04/22 09:05:29;;;;;;;20.70;18.60;;;16.00;82.10;;;;;;10439289;28;20200;-85
2022/04/22 09:10:32;;;;;;;17.60;15.80;;;16.20;82.60;;;;;;10445341;28;20713;-83
2022/04/22 09:15:38;;;;;;;18.50;16.70;;;16.40;82.30;;;;;;10442238;28;20213;-84
2022/04/22 09:20:40;;;;;;;19.20;15.40;;;16.70;83.00;;;;;;10445688;28;20715;-83
2022/04/22 09:25:44;;;;;;;17.87;16.07;;;17.00;80.50;;;;;;10449208;28;20193;-83
2022/04/22 09:30:58;;;;;;;17.13;15.53;;;17.30;80.10;;;;;;10448449;28;20229;-84
2022/04/22 09:46:48;;;;;;;14.57;13.27;;;18.20;76.30;;;;;;10427247;28;20227;-84
2022/04/22 09:52:04;;;;;;;16.90;15.27;;;18.40;76.60;;;;;;10457141;28;20209;-85
2022/04/22 09:57:07;;;;;;;15.13;13.73;;;18.70;76.10;;;;;;10439493;28;20615;-84
2022/04/22 10:02:15;;;;;;;14.80;13.40;;;18.90;76.80;;;;;;10453378;28;20245;-83
2022/04/22 10:07:18;;;;;;;15.10;13.67;;;19.20;76.20;;;;;;10450284;28;20194;-83
2022/04/22 10:12:23;;;;;;;15.93;14.23;;;19.40;73.60;;;;;;10433791;28;20260;-84
2022/04/22 10:17:27;;;;;;;14.77;13.50;;;19.30;72.20;;;;;;10446472;28;20256;-85
2022/04/22 10:22:31;;;;;;;14.00;12.70;;;18.90;74.10;;;;;;10425672;28;20228;-85
2022/04/22 10:27:34;;;;;;;16.90;14.63;;;18.70;73.90;;;;;;10433157;28;20197;-84
2022/04/22 10:32:40;;;;;;;16.87;14.97;;;18.40;75.90;;;;;;10439691;28;20897;-84
2022/04/22 10:37:43;;;;;;;15.40;13.97;;;18.10;73.70;;;;;;10465153;28;20287;-85
2022/04/22 10:42:47;;;;;;;15.97;14.47;;;17.80;75.20;;;;;;10430158;28;20228;-85
2022/04/22 10:47:50;;;;;;;15.93;14.43;;;17.60;76.10;;;;;;10435961;28;20194;-84
2022/04/22 10:53:03;;;;;;;13.63;12.37;;;17.40;77.30;;;;;;10467866;28;20236;-85
2022/04/22 10:58:29;;;;;;;14.90;13.60;;;17.50;78.50;;;;;;10443994;28;20806;-84
2022/04/22 11:03:56;;;;;;;12.33;11.03;;;17.60;77.30;;;;;;10430745;28;20203;-85
2022/04/22 11:09:02;;;;;;;14.67;12.90;;;17.50;79.10;;;;;;10418386;28;20762;-85
2022/04/22 11:14:18;;;;;;;15.23;13.83;;;17.40;77.20;;;;;;10451505;28;20201;-85
2022/04/22 11:19:32;;;;;;;16.70;15.20;;;17.40;77.90;;;;;;10454911;22;20228;-80
2022/04/22 11:24:36;;;;;;;13.23;12.03;;;17.30;78.30;;;;;;10379126;28;20191;-81
2022/04/22 11:29:39;;;;;;;15.47;14.07;;;17.30;79.30;;;;;;10372936;28;20210;-82
2022/04/22 11:35:17;;;;;;;16.20;14.70;;;17.30;77.30;;;;;;10371690;28;20678;-82
2022/04/22 11:40:20;;;;;;;13.97;12.67;;;17.10;76.70;;;;;;10362296;28;20222;-82
2022/04/22 11:45:24;;;;;;;14.77;13.37;;;17.20;79.20;;;;;;10373008;28;20253;-81
2022/04/22 11:50:26;;;;;;;16.77;15.20;;;17.20;78.40;;;;;;10355570;28;20225;-82
2022/04/22 11:55:30;;;;;;;13.67;12.43;;;17.10;80.80;;;;;;10374397;28;20214;-81
2022/04/22 12:05:53;;;;;;;15.20;13.77;;;17.10;80.40;;;;;;10392844;28;20198;-83
2022/04/22 12:10:56;;;;;;;14.07;12.77;;;17.20;77.80;;;;;;10377080;28;20268;-84
2022/04/22 12:16:01;;;;;;;16.47;15.07;;;17.30;77.40;;;;;;10376716;28;20246;-82
2022/04/22 12:21:04;;;;;;;13.40;12.20;;;17.30;75.40;;;;;;10394866;28;20229;-84
2022/04/22 12:26:15;;;;;;;16.00;13.83;;;17.50;76.30;;;;;;10394600;28;20250;-82
2022/04/22 12:31:22;;;;;;;14.73;13.20;;;17.50;76.00;;;;;;10392838;28;20221;-84
2022/04/22 12:36:24;;;;;;;12.50;11.40;;;17.50;77.40;;;;;;10413731;28;20221;-81
2022/04/22 12:41:28;;;;;;;16.57;14.47;;;17.40;81.10;;;;;;10377409;28;20226;-81
2022/04/22 12:52:14;;;;;;;12.30;11.03;;;17.40;77.20;;;;;;10356932;28;20277;-82
2022/04/22 12:57:23;;;;;;;15.60;14.10;;;17.40;79.80;;;;;;10416622;28;20218;-82
2022/04/22 13:02:38;;;;;;;13.30;10.87;;;17.40;77.10;;;;;;10391226;28;20564;-84
2022/04/22 13:07:41;;;;;;;12.70;11.50;;;17.40;79.90;;;;;;10394526;28;20203;-82
2022/04/22 13:12:46;;;;;;;13.60;12.30;;;17.50;77.60;;;;;;10382958;28;20225;-84
2022/04/22 13:17:49;;;;;;;11.43;10.33;;;17.60;78.10;;;;;;10412075;28;20708;-83
2022/04/22 13:22:51;;;;;;;12.67;11.47;;;17.80;76.60;;;;;;10386596;28;20222;-83
2022/04/22 13:27:55;;;;;;;12.97;11.67;;;17.80;75.20;;;;;;10405894;28;20204;-82
2022/04/22 13:32:57;;;;;;;14.07;12.77;;;17.90;74.80;;;;;;10391667;28;20245;-83
2022/04/22 13:37:59;;;;;;;10.60;9.60;;;18.10;75.70;;;;;;10380416;28;20611;-83
2022/04/22 13:43:03;;;;;;;9.20;8.40;;;18.20;77.10;;;;;;10385060;28;20229;-83
2022/04/22 13:53:25;;;;;;;15.40;10.77;;;18.10;73.90;;;;;;10401431;28;20217;-83
2022/04/22 13:58:32;;;;;;;11.00;9.90;;;18.00;75.70;;;;;;10393117;28;20583;-82
2022/04/22 14:03:34;;;;;;;12.63;11.40;;;17.90;77.00;;;;;;10388627;28;20214;-82
2022/04/22 14:08:37;;;;;;;13.40;12.20;;;17.80;78.10;;;;;;10396571;28;20195;-81
2022/04/22 14:13:41;;;;;;;11.00;10.00;;;17.90;74.30;;;;;;10381375;28;20261;-82
2022/04/22 14:18:43;;;;;;;11.23;10.20;;;17.90;76.00;;;;;;10408184;28;20214;-81
2022/04/22 14:23:45;;;;;;;10.50;9.50;;;18.00;73.90;;;;;;10397248;28;20230;-81
2022/04/22 14:28:49;;;;;;;10.97;9.97;;;18.10;76.10;;;;;;10404215;28;20367;-81
2022/04/22 14:33:51;;;;;;;10.80;9.80;;;18.00;75.20;;;;;;10393948;28;20626;-81
2022/04/22 14:39:03;;;;;;;12.43;9.83;;;18.10;76.80;;;;;;10388543;28;20218;-81
2022/04/22 14:44:18;;;;;;;9.20;7.90;;;18.20;76.10;;;;;;10387048;28;20194;-81
2022/04/22 14:49:20;;;;;;;9.40;8.63;;;18.30;78.10;;;;;;10391436;28;20201;-81
2022/04/22 14:54:22;;;;;;;10.70;9.70;;;18.30;78.30;;;;;;10406061;28;20201;-82
2022/04/22 14:59:26;;;;;;;9.97;9.10;;;18.20;74.20;;;;;;10377799;28;20293;-81
2022/04/22 15:04:28;;;;;;;9.10;8.30;;;18.00;77.30;;;;;;10407132;28;20314;-82
2022/04/22 15:09:31;;;;;;;9.57;8.77;;;17.90;71.30;;;;;;10398433;28;20509;-83
2022/04/22 15:14:35;;;;;;;10.07;9.27;;;17.90;74.60;;;;;;10393762;28;20552;-83
2022/04/22 15:24:56;;;;;;;9.23;8.40;;;17.90;73.30;;;;;;10418537;28;20193;-81
2022/04/22 15:30:00;;;;;;;9.80;8.90;;;18.00;75.80;;;;;;10399629;28;20218;-83
2022/04/22 15:35:03;;;;;;;9.47;8.67;;;18.10;74.70;;;;;;10404074;28;20558;-81
2022/04/22 15:40:06;;;;;;;8.47;7.77;;;18.50;74.90;;;;;;10389434;28;20218;-81
2022/04/22 15:45:10;;;;;;;8.23;7.53;;;18.80;72.20;;;;;;10400215;28;20205;-81
2022/04/22 15:50:12;;;;;;;8.00;7.03;;;18.80;68.30;;;;;;10390384;28;20710;-81
2022/04/22 15:55:15;;;;;;;10.30;9.40;;;18.60;74.30;;;;;;10401636;28;20201;-81
2022/04/22 16:00:19;;;;;;;8.23;7.60;;;18.50;69.00;;;;;;10391217;28;20229;-81
2022/04/22 16:05:21;;;;;;;8.30;7.70;;;18.50;69.80;;;;;;10399536;28;20215;-83
2022/04/22 16:10:23;;;;;;;9.67;8.77;;;18.40;76.00;;;;;;10413027;28;20589;-83
2022/04/22 16:15:28;;;;;;;7.60;7.00;;;18.30;72.20;;;;;;10392281;28;20246;-83
2022/04/22 16:20:30;;;;;;;8.03;7.33;;;18.30;77.20;;;;;;10392424;28;20218;-83
2022/04/22 16:25:32;;;;;;;7.17;6.57;;;18.20;75.90;;;;;;10382377;28;20190;-83
2022/04/22 16:30:37;;;;;;;8.13;7.53;;;18.30;74.40;;;;;;10396943;28;20517;-84
2022/04/22 16:35:40;;;;;;;7.93;7.30;;;18.30;75.70;;;;;;10381108;28;20641;-82
2022/04/22 16:40:42;;;;;;;8.67;7.87;;;18.40;79.00;;;;;;10409348;28;20221;-82
2022/04/22 16:45:45;;;;;;;6.97;6.37;;;18.30;78.80;;;;;;10392702;28;20616;-82
2022/04/22 16:50:47;;;;;;;7.40;6.80;;;18.30;77.90;;;;;;10398561;28;20222;-82
2022/04/22 16:55:50;;;;;;;6.60;6.10;;;18.30;77.10;;;;;;10399218;28;20264;-82
2022/04/22 17:00:53;;;;;;;7.90;7.13;;;18.30;74.70;;;;;;10399263;28;20300;-83
2022/04/22 17:05:56;;;;;;;5.90;5.50;;;18.30;74.30;;;;;;10395344;28;20213;-83
2022/04/22 17:10:58;;;;;;;7.03;6.53;;;18.30;76.40;;;;;;10386928;28;20291;-83
2022/04/22 17:26:44;;;;;;;7.87;7.00;;;17.90;74.00;;;;;;10462638;28;20189;-81
2022/04/22 17:31:48;;;;;;;7.30;6.70;;;17.90;76.00;;;;;;10444669;28;20217;-83
2022/04/22 17:36:51;;;;;;;8.33;7.60;;;17.80;73.90;;;;;;10438225;28;20225;-80
2022/04/22 17:41:53;;;;;;;6.70;6.17;;;17.80;73.20;;;;;;10452837;28;20288;-79
2022/04/22 17:46:57;;;;;;;8.00;7.30;;;17.70;74.40;;;;;;10446033;28;20190;-81
2022/04/22 17:51:59;;;;;;;7.80;7.20;;;17.70;71.10;;;;;;10436188;28;20232;-83
2022/04/22 17:57:03;;;;;;;7.47;6.77;;;17.60;73.70;;;;;;10428058;28;20217;-83
2022/04/22 18:02:08;;;;;;;7.03;6.53;;;17.50;79.20;;;;;;10451423;28;20628;-79
2022/04/22 18:07:12;;;;;;;7.37;6.73;;;17.40;81.60;;;;;;10447234;28;20200;-81
2022/04/22 18:12:14;;;;;;;7.37;6.50;;;17.30;83.30;;;;;;10434701;28;20206;-83
2022/04/22 18:17:17;;;;;;;8.77;7.97;;;17.10;84.60;;;;;;10448669;28;20229;-82
2022/04/22 18:22:20;;;;;;;7.57;6.87;;;16.90;86.10;;;;;;10452944;28;20237;-81
2022/04/22 18:27:22;;;;;;;7.40;6.70;;;16.70;86.60;;;;;;10447420;28;20190;-81
2022/04/22 18:32:26;;;;;;;10.20;9.13;;;16.70;85.70;;;;;;10448319;28;20217;-83
2022/04/22 18:37:30;;;;;;;10.87;9.77;;;16.60;83.90;;;;;;10423465;28;20304;-81
2022/04/22 18:42:32;;;;;;;12.33;9.90;;;16.50;86.20;;;;;;10430390;28;20213;-82
2022/04/22 18:47:36;;;;;;;11.23;10.13;;;16.50;82.90;;;;;;10442683;28;20198;-80
2022/04/22 18:52:38;;;;;;;9.03;8.23;;;16.50;83.80;;;;;;10444456;28;20225;-81
2022/04/22 18:57:41;;;;;;;10.50;9.40;;;16.50;84.20;;;;;;10444712;28;20292;-82
2022/04/22 19:02:44;;;;;;;9.80;8.77;;;16.50;86.20;;;;;;10442673;28;20213;-81
2022/04/22 19:07:46;;;;;;;10.63;9.33;;;16.40;86.00;;;;;;10443661;28;20225;-81
2022/04/22 19:12:49;;;;;;;10.63;9.63;;;16.40;86.90;;;;;;10447460;28;20222;-81
2022/04/22 19:17:52;;;;;;;9.67;8.77;;;16.40;88.70;;;;;;10444726;28;20226;-81
2022/04/22 19:22:54;;;;;;;9.10;8.30;;;16.40;88.90;;;;;;10444313;28;20225;-82
2022/04/22 19:27:56;;;;;;;8.10;7.50;;;16.30;89.90;;;;;;10432945;28;20190;-82
2022/04/22 19:33:01;;;;;;;9.97;9.13;;;16.20;90.00;;;;;;10431345;28;20290;-81
2022/04/22 19:43:24;;;;;;;9.43;8.63;;;16.00;90.60;;;;;;10451352;28;20288;-80
2022/04/22 19:48:29;;;;;;;10.07;9.20;;;15.90;90.40;;;;;;10455424;28;20216;-81
2022/04/22 19:53:31;;;;;;;8.80;8.10;;;15.80;91.00;;;;;;10453681;28;20221;-80
2022/04/22 19:58:34;;;;;;;10.07;9.17;;;15.70;90.60;;;;;;10449259;28;20218;-80
2022/04/22 20:03:37;;;;;;;11.03;10.03;;;15.70;91.00;;;;;;10445893;28;20233;-80
2022/04/22 20:08:40;;;;;;;9.93;9.13;;;15.60;90.00;;;;;;10446961;28;20601;-80
2022/04/22 20:13:43;;;;;;;9.53;8.83;;;15.50;89.90;;;;;;10444816;28;20221;-80
2022/04/22 20:18:48;;;;;;;10.23;9.23;;;15.50;90.40;;;;;;10432206;28;20218;-84
2022/04/22 20:23:50;;;;;;;10.60;9.60;;;15.40;91.00;;;;;;10437051;28;20228;-82
2022/04/22 20:28:52;;;;;;;10.57;9.30;;;15.40;90.60;;;;;;10462204;28;20902;-82
2022/04/22 20:33:56;;;;;;;10.17;9.37;;;15.30;90.90;;;;;;10463563;28;20220;-83
2022/04/22 20:44:17;;;;;;;11.00;10.10;;;15.20;91.50;;;;;;10436298;28;20205;-82
2022/04/22 20:49:21;;;;;;;12.13;10.93;;;15.10;91.80;;;;;;10437633;28;20194;-82
2022/04/22 20:54:23;;;;;;;11.97;10.87;;;15.10;92.00;;;;;;10432544;28;20245;-81
2022/04/22 20:59:27;;;;;;;13.50;12.20;;;15.10;92.20;;;;;;10418642;28;20223;-81
2022/04/22 21:04:30;;;;;;;13.93;12.73;;;15.10;92.60;;;;;;10439171;28;20221;-81
2022/04/22 21:09:33;;;;;;;13.27;12.07;;;15.10;90.50;;;;;;10457834;28;20284;-81
2022/04/22 21:14:36;;;;;;;13.20;11.90;;;15.00;92.00;;;;;;10442425;28;20662;-82
2022/04/22 21:19:39;;;;;;;13.90;12.70;;;15.00;92.50;;;;;;10442166;28;20227;-83
2022/04/22 21:24:42;;;;;;;14.30;12.80;;;15.00;92.30;;;;;;10461408;28;20206;-83
2022/04/22 21:29:44;;;;;;;14.50;11.97;;;15.00;92.50;;;;;;10443535;28;20228;-81
2022/04/22 21:34:47;;;;;;;15.83;14.23;;;14.90;92.80;;;;;;10444955;28;20200;-81
2022/04/22 21:39:50;;;;;;;15.30;13.90;;;14.80;92.60;;;;;;10434068;28;20278;-81
2022/04/22 21:44:52;;;;;;;14.77;13.37;;;14.80;92.80;;;;;;10442389;28;20232;-81
2022/04/22 21:49:55;;;;;;;15.80;14.40;;;14.70;92.40;;;;;;10436590;28;20209;-81
2022/04/22 21:54:57;;;;;;;16.27;14.77;;;14.60;92.20;;;;;;10446186;28;20221;-81
2022/04/22 21:59:59;;;;;;;15.70;14.30;;;14.60;92.20;;;;;;10406086;28;20230;-81
2022/04/22 22:05:05;;;;;;;15.70;14.30;;;14.50;92.30;;;;;;10412849;28;20205;-82
2022/04/22 22:10:08;;;;;;;14.60;13.30;;;14.40;92.40;;;;;;10409409;28;20242;-82
2022/04/22 22:15:12;;;;;;;16.00;14.53;;;14.40;92.50;;;;;;10409400;28;20209;-81
2022/04/22 22:20:16;;;;;;;16.57;15.07;;;14.30;92.60;;;;;;10419258;28;20238;-81
2022/04/22 22:25:18;;;;;;;17.17;15.63;;;14.20;92.30;;;;;;10392604;28;20205;-80
2022/04/22 22:30:21;;;;;;;16.77;15.17;;;14.20;91.90;;;;;;10412902;28;20300;-81
2022/04/22 22:35:24;;;;;;;17.97;16.23;;;14.10;91.60;;;;;;10418491;28;20295;-81
2022/04/22 22:40:26;;;;;;;17.40;15.80;;;14.00;91.50;;;;;;10415464;28;20233;-80
2022/04/22 22:45:30;;;;;;;18.00;16.30;;;13.80;92.20;;;;;;10408868;28;20202;-81
2022/04/22 22:50:33;;;;;;;17.50;15.90;;;13.80;92.00;;;;;;10408506;28;20264;-80
2022/04/22 22:55:36;;;;;;;17.37;15.77;;;13.70;92.00;;;;;;10388961;28;20203;-82
2022/04/22 23:00:38;;;;;;;16.43;15.03;;;13.70;92.60;;;;;;10399965;28;20269;-81
2022/04/22 23:05:43;;;;;;;17.50;15.90;;;13.60;92.70;;;;;;10421340;28;20232;-81
2022/04/22 23:10:45;;;;;;;18.30;16.43;;;13.60;92.40;;;;;;10399248;28;20213;-82
2022/04/22 23:15:47;;;;;;;18.20;16.50;;;13.50;92.20;;;;;;10424046;28;20210;-82
2022/04/22 23:20:52;;;;;;;18.70;16.73;;;13.40;92.00;;;;;;10415833;22;20229;-79
2022/04/22 23:25:56;;;;;;;19.30;17.40;;;13.30;92.50;;;;;;10407647;28;20783;-80
2022/04/22 23:30:58;;;;;;;20.57;18.70;;;13.30;92.50;;;;;;10413272;28;20290;-79
2022/04/22 23:36:01;;;;;;;18.37;16.80;;;13.20;92.20;;;;;;10419037;28;20636;-79
2022/04/22 23:41:03;;;;;;;18.97;16.67;;;13.20;92.70;;;;;;10408223;28;20673;-80
2022/04/22 23:46:05;;;;;;;17.03;15.50;;;13.10;92.50;;;;;;10417116;28;20258;-79
2022/04/22 23:51:09;;;;;;;18.33;16.60;;;13.00;92.30;;;;;;10424840;28;20543;-79
2022/04/22 23:56:12;;;;;;;19.30;17.50;;;13.00;93.20;;;;;;10399481;28;20228;-79
